createdAt,value
2018-04-02T00:01:37.677Z,2.97
2018-04-02T00:04:05.923Z,2.98
2018-04-02T00:06:34.175Z,2.79
2018-04-02T00:09:02.433Z,2.98
2018-04-02T00:11:31.455Z,2.94
2018-04-02T00:13:59.709Z,3.17
2018-04-02T00:19:03.052Z,3.18
2018-04-02T00:21:31.301Z,3.27
2018-04-02T00:23:59.557Z,3.21
2018-04-02T00:26:27.793Z,3.26
2018-04-02T00:28:56.032Z,3.29
2018-04-02T00:31:24.282Z,3.25
2018-04-02T00:33:52.528Z,3.22
2018-04-02T00:36:20.773Z,3.21
2018-04-02T00:38:49.028Z,3.32
2018-04-02T00:41:17.282Z,3.31
2018-04-02T00:43:45.536Z,3.31
2018-04-02T00:46:14.541Z,3.19
2018-04-02T00:48:43.556Z,3.23
2018-04-02T00:51:11.804Z,3.23
2018-04-02T00:53:40.813Z,3.14
2018-04-02T00:56:09.829Z,3.10
2018-04-02T00:58:38.084Z,3.13
2018-04-02T01:01:07.096Z,3.08
2018-04-02T01:03:35.351Z,3.05
2018-04-02T01:06:04.361Z,3.02
2018-04-02T01:08:33.380Z,3.07
2018-04-02T01:11:01.616Z,3.06
2018-04-02T01:13:29.889Z,2.78
2018-04-02T01:15:58.163Z,2.58
2018-04-02T01:18:26.382Z,2.54
2018-04-02T01:20:55.398Z,2.55
2018-04-02T01:23:23.636Z,2.15
2018-04-02T01:25:51.877Z,2.08
2018-04-02T01:28:20.133Z,2.17
2018-04-02T01:30:48.372Z,2.05
2018-04-02T01:33:16.623Z,1.84
2018-04-02T01:35:44.885Z,1.81
2018-04-02T01:38:13.132Z,1.66
2018-04-02T01:40:42.150Z,1.72
2018-04-02T01:43:10.389Z,1.64
2018-04-02T01:45:38.624Z,1.53
2018-04-02T01:48:06.886Z,1.37
2018-04-02T01:50:35.134Z,1.23
2018-04-02T01:53:03.380Z,1.04
2018-04-02T01:55:31.636Z,0.86
2018-04-02T01:57:59.890Z,0.74
2018-04-02T02:00:28.892Z,0.54
2018-04-02T02:02:57.912Z,0.45
2018-04-02T02:05:26.174Z,0.38
2018-04-02T02:07:55.176Z,0.25
2018-04-02T02:10:23.444Z,0.20
2018-04-02T02:12:52.443Z,0.09
2018-04-02T02:15:21.463Z,-0.04
2018-04-02T02:17:49.704Z,-0.13
2018-04-02T02:20:17.960Z,-0.06
2018-04-02T02:22:46.917Z,0.11
2018-04-02T02:25:15.172Z,-0.14
2018-04-02T02:27:44.184Z,-0.29
2018-04-02T02:30:12.439Z,-0.34
2018-04-02T02:32:40.692Z,-0.33
2018-04-02T02:35:08.980Z,-0.44
2018-04-02T02:37:37.256Z,-0.29
2018-04-02T02:40:06.226Z,-0.10
2018-04-02T02:42:34.472Z,-0.26
2018-04-02T02:45:02.752Z,-0.42
2018-04-02T02:47:31.759Z,-0.41
2018-04-02T02:50:00.014Z,-0.53
2018-04-02T02:52:28.291Z,-0.41
2018-04-02T02:54:56.527Z,-0.61
2018-04-02T02:57:24.793Z,-0.66
2018-04-02T02:59:53.048Z,-0.79
2018-04-02T03:02:22.077Z,-0.86
2018-04-02T03:04:50.354Z,-0.79
2018-04-02T03:07:18.608Z,-0.45
2018-04-02T03:09:47.612Z,-0.36
2018-04-02T03:12:16.641Z,-0.20
2018-04-02T03:14:44.893Z,-0.43
2018-04-02T03:17:13.909Z,-0.51
2018-04-02T03:19:42.167Z,-0.68
2018-04-02T03:22:10.423Z,-0.42
2018-04-02T03:24:38.675Z,-0.64
2018-04-02T03:27:06.943Z,-0.31
2018-04-02T03:29:35.197Z,-0.71
2018-04-02T03:32:03.460Z,-0.86
2018-04-02T03:34:32.491Z,-0.94
2018-04-02T03:37:00.751Z,-0.97
2018-04-02T03:39:29.772Z,-1.01
2018-04-02T03:41:58.028Z,-1.02
2018-04-02T03:44:26.295Z,-1.10
2018-04-02T03:46:55.308Z,-1.12
2018-04-02T03:49:23.580Z,-1.03
2018-04-02T03:51:52.602Z,-1.12
2018-04-02T03:54:20.865Z,-1.04
2018-04-02T03:56:49.173Z,-1.14
2018-04-02T03:59:17.447Z,-1.15
2018-04-02T04:01:45.741Z,-1.13
2018-04-02T04:04:14.002Z,-1.13
2018-04-02T04:06:42.271Z,-1.19
2018-04-02T04:09:10.537Z,-1.14
2018-04-02T04:11:39.559Z,-0.94
2018-04-02T04:14:07.824Z,-1.08
2018-04-02T04:16:36.857Z,-1.19
2018-04-02T04:19:06.004Z,-1.19
2018-04-02T04:21:35.031Z,-1.27
2018-04-02T04:24:03.293Z,-1.37
2018-04-02T04:26:32.312Z,-1.38
2018-04-02T04:29:00.580Z,-1.36
2018-04-02T04:31:28.837Z,-1.40
2018-04-02T04:33:57.082Z,-1.44
2018-04-02T04:36:25.343Z,-1.44
2018-04-02T04:38:53.598Z,-1.49
2018-04-02T04:41:21.851Z,-1.48
2018-04-02T04:43:50.121Z,-1.38
2018-04-02T04:46:18.371Z,-1.40
2018-04-02T04:48:46.628Z,-1.47
2018-04-02T04:51:14.896Z,-1.50
2018-04-02T04:53:43.924Z,-1.43
2018-04-02T04:56:12.193Z,-1.46
2018-04-02T04:58:40.452Z,-1.19
2018-04-02T05:01:09.482Z,-1.27
2018-04-02T05:03:37.749Z,-1.35
2018-04-02T05:06:06.022Z,-1.16
2018-04-02T05:08:34.276Z,-1.29
2018-04-02T05:11:03.133Z,-1.34
2018-04-02T05:13:31.493Z,-1.29
2018-04-02T05:15:59.753Z,-1.28
2018-04-02T05:18:28.763Z,-1.31
2018-04-02T05:20:57.032Z,-1.27
2018-04-02T05:23:26.204Z,-1.25
2018-04-02T05:25:54.455Z,-1.17
2018-04-02T05:28:22.705Z,-1.10
2018-04-02T05:30:50.976Z,-1.02
2018-04-02T05:33:20.000Z,-0.99
2018-04-02T05:35:48.255Z,-0.92
2018-04-02T05:38:16.520Z,-0.84
2018-04-02T05:40:45.536Z,-0.75
2018-04-02T05:43:14.756Z,-0.65
2018-04-02T05:45:43.032Z,-0.53
2018-04-02T05:48:11.285Z,-0.37
2018-04-02T05:50:40.313Z,-0.32
2018-04-02T05:53:08.575Z,0.04
2018-04-02T05:55:36.831Z,4.43
2018-04-02T05:58:05.104Z,8.79
2018-04-02T06:00:33.336Z,11.33
2018-04-02T06:03:01.595Z,14.34
2018-04-02T06:05:30.617Z,14.97
2018-04-02T06:07:58.866Z,15.85
2018-04-02T06:10:27.872Z,15.63
2018-04-02T06:12:56.137Z,16.26
2018-04-02T06:15:25.144Z,16.85
2018-04-02T06:17:53.404Z,17.15
2018-04-02T06:20:21.645Z,17.72
2018-04-02T06:22:49.912Z,19.52
2018-04-02T06:25:19.397Z,18.84
2018-04-02T06:27:48.502Z,18.56
2018-04-02T06:30:16.808Z,19.83
2018-04-02T06:32:45.053Z,19.69
2018-04-02T06:35:14.231Z,19.14
2018-04-02T06:37:42.468Z,18.94
2018-04-02T06:40:10.720Z,19.98
2018-04-02T06:42:38.980Z,20.57
2018-04-02T06:45:08.030Z,20.71
2018-04-02T06:47:36.248Z,19.83
2018-04-02T06:50:04.499Z,21.42
2018-04-02T06:52:32.766Z,21.70
2018-04-02T06:55:01.030Z,21.71
2018-04-02T06:57:29.292Z,21.36
2018-04-02T06:59:58.305Z,23.02
2018-04-02T07:02:26.556Z,24.29
2018-04-02T07:04:56.836Z,23.11
2018-04-02T07:07:25.096Z,22.83
2018-04-02T07:09:53.367Z,22.36
2018-04-02T07:12:21.634Z,23.38
2018-04-02T07:14:50.648Z,23.14
2018-04-02T07:17:18.970Z,23.30
2018-04-02T07:19:47.923Z,22.11
2018-04-02T07:22:16.174Z,22.77
2018-04-02T07:24:44.440Z,23.78
2018-04-02T07:27:12.699Z,25.41
2018-04-02T07:29:40.948Z,23.86
2018-04-02T07:32:09.200Z,24.68
2018-04-02T07:34:38.217Z,23.51
2018-04-02T07:37:06.485Z,24.06
2018-04-02T07:39:35.491Z,24.90
2018-04-02T07:42:03.764Z,25.83
2018-04-02T07:44:32.769Z,25.97
2018-04-02T07:47:01.025Z,25.08
2018-04-02T07:49:29.296Z,25.04
2018-04-02T07:51:57.782Z,25.54
2018-04-02T07:54:26.021Z,23.98
2018-04-02T07:56:54.274Z,23.18
2018-04-02T07:59:23.308Z,24.81
2018-04-02T08:01:51.564Z,24.81
2018-04-02T08:04:19.881Z,23.28
2018-04-02T08:06:48.848Z,23.29
2018-04-02T08:09:17.124Z,22.33
2018-04-02T08:11:45.355Z,22.86
2018-04-02T08:14:13.608Z,21.79
2018-04-02T08:16:41.934Z,22.08
2018-04-02T08:19:10.188Z,23.28
2018-04-02T08:21:38.456Z,24.17
2018-04-02T08:24:06.699Z,20.07
2018-04-02T08:26:34.956Z,21.28
2018-04-02T08:29:03.985Z,19.02
2018-04-02T08:31:32.236Z,20.38
2018-04-02T08:34:01.269Z,23.37
2018-04-02T08:36:29.531Z,20.78
2018-04-02T08:38:59.828Z,22.66
2018-04-02T08:41:29.067Z,22.08
2018-04-02T08:43:57.316Z,24.52
2018-04-02T08:46:25.575Z,25.28
2018-04-02T08:48:53.828Z,25.78
2018-04-02T08:51:22.104Z,26.87
2018-04-02T08:53:50.364Z,27.12
2018-04-02T08:56:19.391Z,24.98
2018-04-02T08:58:47.651Z,27.04
2018-04-02T09:01:15.908Z,25.87
2018-04-02T09:03:44.924Z,25.62
2018-04-02T09:06:13.221Z,27.75
2018-04-02T09:08:42.208Z,27.60
2018-04-02T09:11:10.467Z,27.32
2018-04-02T09:13:39.484Z,25.84
2018-04-02T09:16:07.765Z,24.56
2018-04-02T09:18:36.035Z,24.36
2018-04-02T09:21:05.060Z,25.34
2018-04-02T09:23:33.311Z,23.49
2018-04-02T09:26:01.579Z,24.10
2018-04-02T09:28:30.588Z,25.21
2018-04-02T09:30:58.856Z,23.82
2018-04-02T09:33:27.886Z,22.71
2018-04-02T09:35:56.144Z,25.35
2018-04-02T09:38:25.147Z,26.32
2018-04-02T09:40:53.411Z,25.62
2018-04-02T09:43:22.369Z,25.55
2018-04-02T09:45:50.630Z,24.81
2018-04-02T09:48:18.873Z,27.19
2018-04-02T09:50:47.899Z,25.62
2018-04-02T09:53:16.152Z,25.79
2018-04-02T09:55:45.180Z,26.58
2018-04-02T09:58:13.449Z,26.42
2018-04-02T10:00:41.707Z,26.74
2018-04-02T10:03:10.738Z,25.38
2018-04-02T10:05:39.035Z,27.65
2018-04-02T10:08:08.060Z,27.46
2018-04-02T10:10:36.269Z,26.69
2018-04-02T10:13:05.287Z,25.30
2018-04-02T10:15:33.882Z,24.58
2018-04-02T10:18:02.868Z,26.81
2018-04-02T10:20:31.124Z,26.23
2018-04-02T10:23:00.769Z,27.91
2018-04-02T10:25:30.194Z,25.56
2018-04-02T10:27:58.460Z,24.75
2018-04-02T10:33:23.891Z,24.16
2018-04-02T10:35:52.158Z,24.78
2018-04-02T10:38:20.417Z,22.87
2018-04-02T10:40:49.441Z,23.18
2018-04-02T10:43:17.822Z,23.03
2018-04-02T10:45:45.973Z,28.34
2018-04-02T10:48:14.982Z,25.85
2018-04-02T10:50:43.248Z,25.12
2018-04-02T10:53:12.272Z,24.90
2018-04-02T10:55:40.542Z,23.09
2018-04-02T10:58:08.793Z,23.35
2018-04-02T11:00:37.836Z,25.30
2018-04-02T11:03:06.091Z,28.08
2018-04-02T11:05:35.102Z,27.50
2018-04-02T11:08:03.368Z,21.21
2018-04-02T11:10:32.501Z,22.37
2018-04-02T11:13:00.764Z,22.12
2018-04-02T11:15:29.025Z,22.73
2018-04-02T11:17:58.088Z,22.55
2018-04-02T11:20:26.308Z,22.76
2018-04-02T11:22:54.560Z,23.29
2018-04-02T11:25:22.816Z,26.23
2018-04-02T11:27:51.078Z,28.18
2018-04-02T11:30:19.323Z,29.45
2018-04-02T11:32:48.350Z,32.14
2018-04-02T11:35:16.610Z,27.46
2018-04-02T11:37:44.884Z,21.73
2018-04-02T11:40:13.913Z,23.67
2018-04-02T11:42:42.161Z,27.31
2018-04-02T11:45:10.416Z,29.43
2018-04-02T11:47:38.669Z,28.05
2018-04-02T11:50:06.919Z,28.03
2018-04-02T11:52:35.185Z,22.94
2018-04-02T11:55:07.941Z,22.54
2018-04-02T11:57:36.241Z,23.42
2018-04-02T12:00:05.257Z,27.16
2018-04-02T12:02:33.530Z,24.78
2018-04-02T12:05:01.793Z,23.61
2018-04-02T12:07:30.828Z,22.39
2018-04-02T12:09:59.083Z,24.54
2018-04-02T12:12:28.113Z,21.38
2018-04-02T12:14:56.572Z,25.46
2018-04-02T12:17:24.833Z,25.03
2018-04-02T12:19:53.856Z,22.69
2018-04-02T12:22:22.121Z,21.63
2018-04-02T12:24:51.138Z,28.17
2018-04-02T12:27:19.393Z,31.94
2018-04-02T12:29:48.408Z,25.25
2018-04-02T12:32:16.709Z,24.23
2018-04-02T12:34:44.959Z,23.13
2018-04-02T12:37:13.976Z,21.74
2018-04-02T12:39:42.229Z,28.37
2018-04-02T12:42:11.257Z,31.36
2018-04-02T12:44:39.515Z,32.07
2018-04-02T12:47:09.786Z,32.18
2018-04-02T12:49:38.040Z,28.01
2018-04-02T12:52:06.305Z,25.50
2018-04-02T12:54:34.567Z,22.95
2018-04-02T12:57:03.483Z,26.95
2018-04-02T12:59:31.737Z,24.28
2018-04-02T13:01:59.990Z,25.32
2018-04-02T13:04:28.269Z,25.50
2018-04-02T13:06:56.492Z,24.29
2018-04-02T13:09:25.513Z,24.32
2018-04-02T13:11:53.761Z,24.83
2018-04-02T13:14:22.014Z,23.95
2018-04-02T13:16:50.260Z,21.63
2018-04-02T13:19:18.541Z,21.58
2018-04-02T13:21:46.774Z,21.34
2018-04-02T13:24:15.050Z,20.89
2018-04-02T13:26:43.304Z,21.02
2018-04-02T13:29:11.567Z,20.78
2018-04-02T13:31:39.815Z,20.86
2018-04-02T13:34:08.839Z,20.76
2018-04-02T13:36:37.088Z,20.24
2018-04-02T13:39:06.936Z,20.92
2018-04-02T13:41:35.193Z,21.06
2018-04-02T13:44:04.216Z,21.06
2018-04-02T13:46:32.473Z,21.04
2018-04-02T13:49:00.729Z,20.97
2018-04-02T13:51:28.972Z,21.00
2018-04-02T13:53:57.237Z,20.26
2018-04-02T13:56:25.484Z,19.15
2018-04-02T13:58:54.768Z,19.52
2018-04-02T14:01:23.017Z,19.90
2018-04-02T14:03:51.266Z,19.74
2018-04-02T14:06:19.528Z,18.94
2018-04-02T14:08:48.549Z,19.08
2018-04-02T14:11:16.815Z,19.11
2018-04-02T14:13:45.835Z,19.14
2018-04-02T14:16:14.093Z,18.98
2018-04-02T14:18:42.344Z,18.86
2018-04-02T14:21:10.619Z,18.76
2018-04-02T14:23:38.861Z,18.65
2018-04-02T14:26:07.125Z,18.70
2018-04-02T14:28:35.378Z,18.71
2018-04-02T14:31:05.651Z,18.95
2018-04-02T14:33:33.900Z,19.16
2018-04-02T14:36:02.170Z,18.73
2018-04-02T14:38:31.192Z,18.07
2018-04-02T14:40:59.452Z,18.02
2018-04-02T14:43:27.704Z,18.11
2018-04-02T14:45:55.968Z,18.26
2018-04-02T14:48:24.221Z,18.44
2018-04-02T14:50:52.478Z,18.54
2018-04-02T14:53:21.495Z,18.45
2018-04-02T14:55:49.753Z,18.24
2018-04-02T14:58:18.774Z,17.95
2018-04-02T15:00:47.025Z,18.07
2018-04-02T15:03:16.046Z,17.48
2018-04-02T15:05:44.293Z,17.54
2018-04-02T15:08:13.321Z,17.43
2018-04-02T15:10:41.574Z,17.46
2018-04-02T15:13:10.604Z,17.32
2018-04-02T15:15:38.852Z,17.54
2018-04-02T15:18:07.881Z,17.56
2018-04-02T15:20:36.141Z,17.36
2018-04-02T15:23:05.160Z,17.23
2018-04-02T15:25:33.421Z,16.94
2018-04-02T15:28:02.452Z,16.78
2018-04-02T15:30:30.704Z,16.61
2018-04-02T15:32:58.966Z,16.42
2018-04-02T15:35:27.996Z,16.20
2018-04-02T15:37:56.269Z,16.07
2018-04-02T15:40:24.526Z,15.90
2018-04-02T15:42:53.562Z,16.12
2018-04-02T15:45:21.812Z,16.36
2018-04-02T15:47:50.077Z,16.32
2018-04-02T15:50:18.332Z,16.55
2018-04-02T15:52:46.608Z,16.50
2018-04-02T15:55:14.881Z,16.56
2018-04-02T15:57:43.131Z,16.21
2018-04-02T16:00:11.420Z,16.27
2018-04-02T16:02:39.676Z,16.08
2018-04-02T16:05:08.710Z,16.00
2018-04-02T16:07:36.960Z,15.89
2018-04-02T16:10:05.981Z,15.80
2018-04-02T16:12:34.228Z,15.64
2018-04-02T16:15:03.263Z,15.40
2018-04-02T16:17:31.514Z,15.50
2018-04-02T16:19:59.780Z,15.48
2018-04-02T16:22:28.801Z,15.35
2018-04-02T16:24:57.068Z,15.17
2018-04-02T16:27:26.208Z,14.96
2018-04-02T16:29:54.469Z,14.90
2018-04-02T16:32:22.717Z,14.89
2018-04-02T16:34:51.733Z,14.79
2018-04-02T16:37:20.001Z,14.61
2018-04-02T16:39:49.033Z,14.50
2018-04-02T16:42:17.285Z,14.39
2018-04-02T16:44:46.320Z,14.21
2018-04-02T16:47:14.577Z,14.28
2018-04-02T16:49:42.834Z,14.15
2018-04-02T16:52:11.851Z,13.98
2018-04-02T16:54:40.111Z,13.95
2018-04-02T16:57:09.142Z,13.81
2018-04-02T16:59:37.405Z,13.80
2018-04-02T17:02:05.673Z,13.70
2018-04-02T17:04:34.696Z,13.56
2018-04-02T17:07:02.966Z,13.36
2018-04-02T17:09:32.064Z,13.29
2018-04-02T17:12:00.331Z,13.17
2018-04-02T17:14:29.354Z,13.05
2018-04-02T17:16:57.616Z,12.96
2018-04-02T17:19:26.630Z,12.90
2018-04-02T17:21:54.889Z,12.78
2018-04-02T17:27:06.397Z,12.45
2018-04-02T17:29:34.652Z,12.37
2018-04-02T17:32:02.926Z,12.40
2018-04-02T17:34:31.180Z,12.30
2018-04-02T17:36:59.440Z,12.21
2018-04-02T17:39:27.708Z,12.10
2018-04-02T17:41:56.728Z,12.03
2018-04-02T17:44:24.989Z,11.98
2018-04-02T17:46:53.255Z,12.03
2018-04-02T17:49:22.266Z,11.97
2018-04-02T17:51:50.534Z,11.91
2018-04-02T17:54:19.569Z,11.89
2018-04-02T17:56:47.826Z,11.88
2018-04-02T17:59:16.085Z,11.84
2018-04-02T18:01:44.341Z,11.88
2018-04-02T18:04:12.609Z,11.83
2018-04-02T18:06:40.856Z,11.71
2018-04-02T18:09:09.118Z,11.70
2018-04-02T18:11:37.368Z,11.76
2018-04-02T18:14:05.644Z,11.59
2018-04-02T18:16:34.459Z,11.41
2018-04-02T18:19:03.484Z,11.37
2018-04-02T18:21:31.758Z,11.66
2018-04-02T18:24:00.013Z,11.83
2018-04-02T18:26:29.048Z,11.49
2018-04-02T18:28:57.310Z,11.31
2018-04-02T18:31:25.577Z,11.13
2018-04-02T18:33:54.598Z,10.98
2018-04-02T18:36:22.863Z,10.85
2018-04-02T18:38:51.912Z,10.70
2018-04-02T18:41:20.168Z,10.54
2018-04-02T18:43:48.439Z,10.38
2018-04-02T18:46:16.701Z,10.38
2018-04-02T18:48:46.959Z,10.13
2018-04-02T18:51:15.214Z,9.81
2018-04-02T18:53:44.217Z,9.67
2018-04-02T18:56:12.481Z,9.71
2018-04-02T18:58:41.498Z,9.83
2018-04-02T19:01:09.750Z,9.76
2018-04-02T19:03:38.756Z,9.75
2018-04-02T19:06:07.780Z,9.73
2018-04-02T19:08:36.026Z,9.65
2018-04-02T19:11:05.035Z,9.58
2018-04-02T19:13:34.052Z,9.86
2018-04-02T19:16:02.315Z,10.10
2018-04-02T19:18:30.569Z,9.75
2018-04-02T19:20:59.665Z,9.49
2018-04-02T19:23:27.872Z,9.27
2018-04-02T19:25:56.896Z,9.07
2018-04-02T19:28:25.141Z,9.36
2018-04-02T19:30:54.149Z,9.29
2018-04-02T19:33:22.401Z,9.07
2018-04-02T19:35:50.673Z,8.73
2018-04-02T19:38:18.920Z,8.45
2018-04-02T19:40:47.179Z,8.36
2018-04-02T19:43:15.438Z,8.42
2018-04-02T19:45:44.445Z,8.22
2018-04-02T19:48:13.462Z,8.16
2018-04-02T19:50:41.704Z,8.12
2018-04-02T19:53:09.965Z,8.10
2018-04-02T19:55:38.231Z,8.08
2018-04-02T19:58:06.485Z,8.08
2018-04-02T20:00:34.740Z,8.25
2018-04-02T20:03:03.758Z,8.35
2018-04-02T20:05:32.021Z,8.30
2018-04-02T20:08:01.039Z,8.31
2018-04-02T20:10:29.276Z,8.31
2018-04-02T20:12:57.531Z,8.69
2018-04-02T20:15:26.614Z,8.89
2018-04-02T20:17:54.862Z,8.69
2018-04-02T20:20:23.139Z,8.51
2018-04-02T20:22:52.156Z,8.23
2018-04-02T20:25:20.406Z,8.17
2018-04-02T20:27:49.692Z,8.18
2018-04-02T20:30:17.936Z,8.18
2018-04-02T20:32:46.184Z,8.38
2018-04-02T20:35:15.681Z,8.53
2018-04-02T20:37:44.697Z,8.35
2018-04-02T20:40:12.966Z,8.43
2018-04-02T20:42:41.978Z,8.26
2018-04-02T20:45:10.241Z,8.33
2018-04-02T20:47:39.253Z,8.22
2018-04-02T20:50:07.511Z,8.14
2018-04-02T20:52:36.517Z,8.13
2018-04-02T20:55:05.553Z,8.16
2018-04-02T20:57:33.797Z,8.31
2018-04-02T21:00:02.825Z,8.71
2018-04-02T21:02:31.085Z,8.67
2018-04-02T21:04:59.324Z,8.48
2018-04-02T21:07:29.375Z,8.41
2018-04-02T21:09:58.399Z,8.68
2018-04-02T21:12:26.648Z,8.60
2018-04-02T21:14:55.697Z,8.51
2018-04-02T21:17:23.952Z,8.23
2018-04-02T21:19:52.205Z,7.97
2018-04-02T21:22:21.304Z,7.88
2018-04-02T21:24:50.464Z,7.78
2018-04-02T21:27:18.706Z,7.72
2018-04-02T21:29:46.956Z,7.75
2018-04-02T21:32:15.973Z,7.81
2018-04-02T21:34:44.221Z,7.48
2018-04-02T21:37:12.476Z,7.23
2018-04-02T21:39:40.725Z,7.07
2018-04-02T21:42:08.983Z,6.99
2018-04-02T21:44:37.980Z,6.91
2018-04-02T21:47:07.112Z,7.01
2018-04-02T21:49:35.352Z,6.81
2018-04-02T21:52:04.362Z,6.58
2018-04-02T21:54:33.380Z,6.73
2018-04-02T21:57:01.623Z,6.80
2018-04-02T21:59:30.356Z,6.47
2018-04-02T22:02:00.470Z,6.42
2018-04-02T22:04:28.715Z,6.24
2018-04-02T22:07:05.045Z,6.00
2018-04-02T22:09:33.289Z,5.92
2018-04-02T22:12:01.558Z,5.86
2018-04-02T22:14:30.576Z,5.78
2018-04-02T22:16:58.835Z,5.76
2018-04-02T22:19:27.856Z,5.70
2018-04-02T22:21:56.116Z,5.66
2018-04-02T22:24:24.368Z,5.73
2018-04-02T22:26:52.614Z,5.78
2018-04-02T22:29:20.860Z,5.92
2018-04-02T22:31:49.128Z,5.73
2018-04-02T22:34:18.128Z,5.75
2018-04-02T22:36:47.753Z,5.75
2018-04-02T22:39:16.015Z,5.60
2018-04-02T22:41:45.044Z,5.53
2018-04-02T22:44:13.296Z,5.47
2018-04-02T22:46:42.316Z,5.45
2018-04-02T22:49:10.558Z,5.33
2018-04-02T22:51:38.809Z,5.28
2018-04-02T22:54:07.068Z,5.21
2018-04-02T22:56:35.937Z,5.17
2018-04-02T22:59:04.336Z,5.12
2018-04-02T23:01:32.582Z,5.15
2018-04-02T23:04:01.605Z,5.23
2018-04-02T23:06:29.844Z,5.26
2018-04-02T23:08:58.102Z,5.23
2018-04-02T23:11:26.347Z,5.22
2018-04-02T23:13:54.606Z,5.24
2018-04-02T23:16:23.609Z,5.22
2018-04-02T23:18:52.631Z,5.53
2018-04-02T23:21:20.877Z,5.32
2018-04-02T23:23:49.897Z,5.40
2018-04-02T23:26:18.141Z,5.31
2018-04-02T23:28:46.397Z,5.50
2018-04-02T23:31:14.628Z,5.41
2018-04-02T23:33:42.892Z,5.40
2018-04-02T23:36:11.921Z,5.47
2018-04-02T23:38:40.170Z,5.53
2018-04-02T23:41:10.426Z,5.59
2018-04-02T23:43:38.691Z,5.61
2018-04-02T23:46:06.951Z,5.77
2018-04-02T23:48:35.204Z,6.27
2018-04-02T23:51:03.456Z,5.96
2018-04-02T23:53:31.716Z,5.89
2018-04-02T23:55:59.971Z,6.02
2018-04-02T23:58:28.232Z,6.43
